sensor_id;sensor_type;location;lat;lon;timestamp;temperature;humidity
12291;DHT22;6208;48.956;9.076;2024-01-11T00:00:55;2.50;99.90
12291;DHT22;6208;48.956;9.076;2024-01-11T00:03:40;1.50;99.90
12291;DHT22;6208;48.956;9.076;2024-01-11T00:06:24;-0.60;99.90
12291;DHT22;6208;48.956;9.076;2024-01-11T00:09:08;-0.70;99.90
12291;DHT22;6208;48.956;9.076;2024-01-11T00:11:52;-0.70;99.90
12291;DHT22;6208;48.956;9.076;2024-01-11T00:14:37;-0.70;99.90
12291;DHT22;6208;48.956;9.076;2024-01-11T00:17:21;-0.70;99.90
12291;DHT22;6208;48.956;9.076;2024-01-11T00:20:06;-0.60;99.90
12291;DHT22;6208;48.956;9.076;2024-01-11T00:22:51;-0.60;99.90
12291;DHT22;6208;48.956;9.076;2024-01-11T00:25:35;-0.60;99.90
12291;DHT22;6208;48.956;9.076;2024-01-11T00:28:19;-0.30;99.90
12291;DHT22;6208;48.956;9.076;2024-01-11T00:31:03;-0.70;99.90
12291;DHT22;6208;48.956;9.076;2024-01-11T00:33:47;-0.70;99.90
12291;DHT22;6208;48.956;9.076;2024-01-11T00:36:31;-0.70;99.90
12291;DHT22;6208;48.956;9.076;2024-01-11T00:39:16;-0.80;99.90
12291;DHT22;6208;48.956;9.076;2024-01-11T00:42:00;-0.90;99.90
12291;DHT22;6208;48.956;9.076;2024-01-11T00:44:46;-0.90;99.90
12291;DHT22;6208;48.956;9.076;2024-01-11T00:47:30;-0.80;99.90
12291;DHT22;6208;48.956;9.076;2024-01-11T00:50:14;-0.90;99.90
12291;DHT22;6208;48.956;9.076;2024-01-11T00:52:58;-0.80;99.90
12291;DHT22;6208;48.956;9.076;2024-01-11T00:55:42;-0.90;99.90
12291;DHT22;6208;48.956;9.076;2024-01-11T00:58:27;-0.90;99.90
12291;DHT22;6208;48.956;9.076;2024-01-11T01:01:12;1.60;99.90
12291;DHT22;6208;48.956;9.076;2024-01-11T01:03:56;-0.90;99.90
12291;DHT22;6208;48.956;9.076;2024-01-11T01:06:41;-0.90;99.90
12291;DHT22;6208;48.956;9.076;2024-01-11T01:09:26;-1.10;99.90
12291;DHT22;6208;48.956;9.076;2024-01-11T01:12:10;-1.20;99.90
12291;DHT22;6208;48.956;9.076;2024-01-11T01:14:54;-1.40;99.90
12291;DHT22;6208;48.956;9.076;2024-01-11T01:17:39;-0.30;99.90
12291;DHT22;6208;48.956;9.076;2024-01-11T01:20:23;-1.60;99.90
12291;DHT22;6208;48.956;9.076;2024-01-11T01:23:07;-1.70;99.90
12291;DHT22;6208;48.956;9.076;2024-01-11T01:25:51;-1.70;99.90
12291;DHT22;6208;48.956;9.076;2024-01-11T01:28:35;-1.60;99.90
12291;DHT22;6208;48.956;9.076;2024-01-11T01:31:21;-1.50;99.90
12291;DHT22;6208;48.956;9.076;2024-01-11T01:34:07;-1.50;99.90
12291;DHT22;6208;48.956;9.076;2024-01-11T01:36:51;-1.50;99.90
12291;DHT22;6208;48.956;9.076;2024-01-11T01:39:38;-1.40;99.90
12291;DHT22;6208;48.956;9.076;2024-01-11T01:42:22;-1.50;99.90
12291;DHT22;6208;48.956;9.076;2024-01-11T01:45:07;-1.60;99.90
12291;DHT22;6208;48.956;9.076;2024-01-11T01:47:51;-1.70;99.90
12291;DHT22;6208;48.956;9.076;2024-01-11T01:53:22;1.00;99.90
12291;DHT22;6208;48.956;9.076;2024-01-11T01:56:07;-1.40;99.90
12291;DHT22;6208;48.956;9.076;2024-01-11T01:58:53;1.50;99.90
12291;DHT22;6208;48.956;9.076;2024-01-11T02:01:39;-1.40;99.90
12291;DHT22;6208;48.956;9.076;2024-01-11T02:04:23;-1.50;99.90
12291;DHT22;6208;48.956;9.076;2024-01-11T02:07:08;0.70;99.90
12291;DHT22;6208;48.956;9.076;2024-01-11T02:09:53;1.50;99.90
12291;DHT22;6208;48.956;9.076;2024-01-11T02:12:37;-1.40;99.90
12291;DHT22;6208;48.956;9.076;2024-01-11T02:15:21;-1.30;99.90
12291;DHT22;6208;48.956;9.076;2024-01-11T02:18:06;1.20;99.90
12291;DHT22;6208;48.956;9.076;2024-01-11T02:20:51;-0.70;99.90
12291;DHT22;6208;48.956;9.076;2024-01-11T02:23:42;-1.20;99.90
12291;DHT22;6208;48.956;9.076;2024-01-11T02:26:29;-0.30;99.90
12291;DHT22;6208;48.956;9.076;2024-01-11T02:29:14;1.20;99.90
12291;DHT22;6208;48.956;9.076;2024-01-11T02:31:59;-1.10;99.90
12291;DHT22;6208;48.956;9.076;2024-01-11T02:34:44;-1.10;99.90
12291;DHT22;6208;48.956;9.076;2024-01-11T02:37:28;-1.10;99.90
12291;DHT22;6208;48.956;9.076;2024-01-11T02:40:13;-1.10;99.90
12291;DHT22;6208;48.956;9.076;2024-01-11T02:43:08;1.60;99.90
12291;DHT22;6208;48.956;9.076;2024-01-11T02:45:56;-1.20;99.90
12291;DHT22;6208;48.956;9.076;2024-01-11T02:48:40;-1.10;99.90
12291;DHT22;6208;48.956;9.076;2024-01-11T02:51:24;-1.20;99.90
12291;DHT22;6208;48.956;9.076;2024-01-11T02:54:08;1.50;99.90
12291;DHT22;6208;48.956;9.076;2024-01-11T02:56:52;-1.20;99.90
12291;DHT22;6208;48.956;9.076;2024-01-11T02:59:36;1.60;99.90
12291;DHT22;6208;48.956;9.076;2024-01-11T03:02:21;-1.30;99.90
12291;DHT22;6208;48.956;9.076;2024-01-11T03:05:05;-1.30;99.90
12291;DHT22;6208;48.956;9.076;2024-01-11T03:07:49;-1.30;99.90
12291;DHT22;6208;48.956;9.076;2024-01-11T03:10:33;-1.30;99.90
12291;DHT22;6208;48.956;9.076;2024-01-11T03:13:17;-4.10;99.90
12291;DHT22;6208;48.956;9.076;2024-01-11T03:16:01;-1.30;99.90
12291;DHT22;6208;48.956;9.076;2024-01-11T03:21:29;-1.60;99.90
12291;DHT22;6208;48.956;9.076;2024-01-11T03:24:14;-1.10;99.90
12291;DHT22;6208;48.956;9.076;2024-01-11T03:26:58;-1.50;99.90
12291;DHT22;6208;48.956;9.076;2024-01-11T03:29:42;-1.60;99.90
12291;DHT22;6208;48.956;9.076;2024-01-11T03:32:26;-1.60;99.90
12291;DHT22;6208;48.956;9.076;2024-01-11T03:35:10;-1.60;99.90
12291;DHT22;6208;48.956;9.076;2024-01-11T03:37:54;-1.50;99.90
12291;DHT22;6208;48.956;9.076;2024-01-11T03:40:38;-1.60;99.90
12291;DHT22;6208;48.956;9.076;2024-01-11T03:43:22;-1.70;99.90
12291;DHT22;6208;48.956;9.076;2024-01-11T03:46:06;-0.70;99.90
12291;DHT22;6208;48.956;9.076;2024-01-11T03:48:50;-1.20;99.90
12291;DHT22;6208;48.956;9.076;2024-01-11T03:51:36;-1.70;99.90
12291;DHT22;6208;48.956;9.076;2024-01-11T03:54:20;-1.80;99.90
12291;DHT22;6208;48.956;9.076;2024-01-11T03:57:04;-1.90;99.90
12291;DHT22;6208;48.956;9.076;2024-01-11T03:59:48;-2.20;99.90
12291;DHT22;6208;48.956;9.076;2024-01-11T04:02:32;-2.50;99.90
12291;DHT22;6208;48.956;9.076;2024-01-11T04:05:16;-0.80;99.90
12291;DHT22;6208;48.956;9.076;2024-01-11T04:08:04;-2.10;99.90
12291;DHT22;6208;48.956;9.076;2024-01-11T04:10:48;-2.00;99.90
12291;DHT22;6208;48.956;9.076;2024-01-11T04:13:32;-2.20;99.90
12291;DHT22;6208;48.956;9.076;2024-01-11T04:16:17;-2.20;99.90
12291;DHT22;6208;48.956;9.076;2024-01-11T04:19:01;-2.20;99.90
12291;DHT22;6208;48.956;9.076;2024-01-11T04:21:47;-2.10;99.90
12291;DHT22;6208;48.956;9.076;2024-01-11T04:24:31;-2.10;99.90
12291;DHT22;6208;48.956;9.076;2024-01-11T04:27:15;-1.80;99.90
12291;DHT22;6208;48.956;9.076;2024-01-11T04:29:59;-2.00;99.90
12291;DHT22;6208;48.956;9.076;2024-01-11T04:32:43;-2.10;99.90
12291;DHT22;6208;48.956;9.076;2024-01-11T04:35:27;-2.00;99.90
12291;DHT22;6208;48.956;9.076;2024-01-11T04:38:11;-1.90;99.90
12291;DHT22;6208;48.956;9.076;2024-01-11T04:40:55;-1.90;99.90
12291;DHT22;6208;48.956;9.076;2024-01-11T04:43:41;-1.90;99.90
12291;DHT22;6208;48.956;9.076;2024-01-11T04:46:25;-2.00;99.90
12291;DHT22;6208;48.956;9.076;2024-01-11T04:49:09;-2.00;99.90
12291;DHT22;6208;48.956;9.076;2024-01-11T04:51:53;0.10;99.90
12291;DHT22;6208;48.956;9.076;2024-01-11T04:54:37;-2.00;99.90
12291;DHT22;6208;48.956;9.076;2024-01-11T04:57:21;-2.30;99.90
12291;DHT22;6208;48.956;9.076;2024-01-11T05:00:06;-2.40;99.90
12291;DHT22;6208;48.956;9.076;2024-01-11T05:02:50;-2.40;99.90
12291;DHT22;6208;48.956;9.076;2024-01-11T05:05:35;-2.40;99.90
12291;DHT22;6208;48.956;9.076;2024-01-11T05:08:19;-2.40;99.90
12291;DHT22;6208;48.956;9.076;2024-01-11T05:11:03;-2.40;99.90
12291;DHT22;6208;48.956;9.076;2024-01-11T05:13:48;-2.50;99.90
12291;DHT22;6208;48.956;9.076;2024-01-11T05:16:32;-2.60;99.90
12291;DHT22;6208;48.956;9.076;2024-01-11T05:19:16;-2.70;99.90
12291;DHT22;6208;48.956;9.076;2024-01-11T05:22:00;-2.50;99.90
12291;DHT22;6208;48.956;9.076;2024-01-11T05:24:44;-2.50;99.90
12291;DHT22;6208;48.956;9.076;2024-01-11T05:27:28;-2.60;99.90
12291;DHT22;6208;48.956;9.076;2024-01-11T05:30:12;-2.90;99.90
12291;DHT22;6208;48.956;9.076;2024-01-11T05:32:56;-2.90;99.90
12291;DHT22;6208;48.956;9.076;2024-01-11T05:35:40;-2.90;99.90
12291;DHT22;6208;48.956;9.076;2024-01-11T05:38:25;-2.90;99.90
12291;DHT22;6208;48.956;9.076;2024-01-11T05:41:09;-2.60;99.90
12291;DHT22;6208;48.956;9.076;2024-01-11T05:43:53;-2.50;99.90
12291;DHT22;6208;48.956;9.076;2024-01-11T05:46:37;-2.50;99.90
12291;DHT22;6208;48.956;9.076;2024-01-11T05:49:21;-1.60;99.90
12291;DHT22;6208;48.956;9.076;2024-01-11T05:52:05;-2.20;99.90
12291;DHT22;6208;48.956;9.076;2024-01-11T05:54:49;-2.20;99.90
12291;DHT22;6208;48.956;9.076;2024-01-11T05:57:34;-2.20;99.90
12291;DHT22;6208;48.956;9.076;2024-01-11T06:00:18;-2.10;99.90
12291;DHT22;6208;48.956;9.076;2024-01-11T06:03:03;-2.10;99.90
12291;DHT22;6208;48.956;9.076;2024-01-11T06:05:48;-2.10;99.90
12291;DHT22;6208;48.956;9.076;2024-01-11T06:08:32;-1.90;99.90
12291;DHT22;6208;48.956;9.076;2024-01-11T06:11:16;-2.10;99.90
12291;DHT22;6208;48.956;9.076;2024-01-11T06:14:02;-2.20;99.90
12291;DHT22;6208;48.956;9.076;2024-01-11T06:16:46;-2.10;99.90
12291;DHT22;6208;48.956;9.076;2024-01-11T06:19:30;-2.30;99.90
12291;DHT22;6208;48.956;9.076;2024-01-11T06:22:14;-2.30;99.90
12291;DHT22;6208;48.956;9.076;2024-01-11T06:24:58;-2.50;99.90
12291;DHT22;6208;48.956;9.076;2024-01-11T06:27:44;-2.60;99.90
12291;DHT22;6208;48.956;9.076;2024-01-11T06:30:28;-0.30;99.90
12291;DHT22;6208;48.956;9.076;2024-01-11T06:33:12;-2.50;99.90
12291;DHT22;6208;48.956;9.076;2024-01-11T06:35:56;-2.40;99.90
12291;DHT22;6208;48.956;9.076;2024-01-11T06:38:40;-2.20;99.90
12291;DHT22;6208;48.956;9.076;2024-01-11T06:41:25;-2.20;99.90
12291;DHT22;6208;48.956;9.076;2024-01-11T06:44:09;-2.20;99.90
12291;DHT22;6208;48.956;9.076;2024-01-11T06:46:53;-2.10;99.90
12291;DHT22;6208;48.956;9.076;2024-01-11T06:49:41;-2.00;99.90
12291;DHT22;6208;48.956;9.076;2024-01-11T06:52:25;-2.20;99.90
12291;DHT22;6208;48.956;9.076;2024-01-11T06:55:09;-2.10;99.90
12291;DHT22;6208;48.956;9.076;2024-01-11T06:57:54;-2.20;99.90
12291;DHT22;6208;48.956;9.076;2024-01-11T07:00:39;-2.20;99.90
12291;DHT22;6208;48.956;9.076;2024-01-11T07:03:26;-0.30;99.90
12291;DHT22;6208;48.956;9.076;2024-01-11T07:06:12;-2.10;99.90
12291;DHT22;6208;48.956;9.076;2024-01-11T07:08:56;-1.70;99.90
12291;DHT22;6208;48.956;9.076;2024-01-11T07:11:40;-2.10;99.90
12291;DHT22;6208;48.956;9.076;2024-01-11T07:14:24;-2.00;99.90
12291;DHT22;6208;48.956;9.076;2024-01-11T07:17:08;-1.90;99.90
12291;DHT22;6208;48.956;9.076;2024-01-11T07:19:52;-1.90;99.90
12291;DHT22;6208;48.956;9.076;2024-01-11T07:22:36;-1.90;99.90
12291;DHT22;6208;48.956;9.076;2024-01-11T07:25:20;-1.90;99.90
12291;DHT22;6208;48.956;9.076;2024-01-11T07:28:04;-1.90;99.90
12291;DHT22;6208;48.956;9.076;2024-01-11T07:30:48;-1.90;99.90
12291;DHT22;6208;48.956;9.076;2024-01-11T07:33:32;0.60;99.90
12291;DHT22;6208;48.956;9.076;2024-01-11T07:36:17;-1.90;99.90
12291;DHT22;6208;48.956;9.076;2024-01-11T07:39:01;-1.90;99.90
12291;DHT22;6208;48.956;9.076;2024-01-11T07:41:45;-2.10;99.90
12291;DHT22;6208;48.956;9.076;2024-01-11T07:44:29;-2.10;99.90
12291;DHT22;6208;48.956;9.076;2024-01-11T07:47:13;-2.10;99.90
12291;DHT22;6208;48.956;9.076;2024-01-11T07:49:57;-2.10;99.90
12291;DHT22;6208;48.956;9.076;2024-01-11T07:52:41;-2.10;99.90
12291;DHT22;6208;48.956;9.076;2024-01-11T07:55:25;-2.40;99.90
12291;DHT22;6208;48.956;9.076;2024-01-11T07:58:10;-2.30;99.90
12291;DHT22;6208;48.956;9.076;2024-01-11T08:00:56;-2.30;99.90
12291;DHT22;6208;48.956;9.076;2024-01-11T08:03:40;-1.80;99.90
12291;DHT22;6208;48.956;9.076;2024-01-11T08:06:25;-2.00;99.90
12291;DHT22;6208;48.956;9.076;2024-01-11T08:09:09;-1.90;99.90
12291;DHT22;6208;48.956;9.076;2024-01-11T08:11:54;-1.80;99.90
12291;DHT22;6208;48.956;9.076;2024-01-11T08:14:38;-1.90;99.90
12291;DHT22;6208;48.956;9.076;2024-01-11T08:17:23;-1.80;99.90
12291;DHT22;6208;48.956;9.076;2024-01-11T08:20:07;-1.20;99.90
12291;DHT22;6208;48.956;9.076;2024-01-11T08:22:52;-1.70;99.90
12291;DHT22;6208;48.956;9.076;2024-01-11T08:25:36;-1.70;99.90
12291;DHT22;6208;48.956;9.076;2024-01-11T08:28:21;-1.70;99.90
12291;DHT22;6208;48.956;9.076;2024-01-11T08:31:05;-1.70;99.90
12291;DHT22;6208;48.956;9.076;2024-01-11T08:33:49;-1.70;99.90
12291;DHT22;6208;48.956;9.076;2024-01-11T08:36:34;0.20;99.90
12291;DHT22;6208;48.956;9.076;2024-01-11T08:39:19;-1.50;99.90
12291;DHT22;6208;48.956;9.076;2024-01-11T08:42:05;-1.50;99.90
12291;DHT22;6208;48.956;9.076;2024-01-11T08:44:49;-1.50;99.90
12291;DHT22;6208;48.956;9.076;2024-01-11T08:47:34;-1.40;99.90
12291;DHT22;6208;48.956;9.076;2024-01-11T08:50:18;-1.40;99.90
12291;DHT22;6208;48.956;9.076;2024-01-11T08:53:02;-1.40;99.90
12291;DHT22;6208;48.956;9.076;2024-01-11T08:55:46;-1.40;99.90
12291;DHT22;6208;48.956;9.076;2024-01-11T08:58:30;-1.40;99.90
12291;DHT22;6208;48.956;9.076;2024-01-11T09:01:14;-1.40;99.90
12291;DHT22;6208;48.956;9.076;2024-01-11T09:03:59;-1.40;99.90
12291;DHT22;6208;48.956;9.076;2024-01-11T09:06:43;-1.30;99.90
12291;DHT22;6208;48.956;9.076;2024-01-11T09:09:27;-1.30;99.90
12291;DHT22;6208;48.956;9.076;2024-01-11T09:12:11;-1.30;99.90
12291;DHT22;6208;48.956;9.076;2024-01-11T09:14:55;-1.20;99.90
12291;DHT22;6208;48.956;9.076;2024-01-11T09:17:39;-1.30;99.90
12291;DHT22;6208;48.956;9.076;2024-01-11T09:20:24;-1.30;99.90
12291;DHT22;6208;48.956;9.076;2024-01-11T09:23:08;-1.30;99.90
12291;DHT22;6208;48.956;9.076;2024-01-11T09:25:52;-1.30;99.90
12291;DHT22;6208;48.956;9.076;2024-01-11T09:28:36;-1.20;99.90
12291;DHT22;6208;48.956;9.076;2024-01-11T09:31:20;0.80;99.90
12291;DHT22;6208;48.956;9.076;2024-01-11T09:34:04;-1.20;99.90
12291;DHT22;6208;48.956;9.076;2024-01-11T09:36:48;-1.20;99.90
12291;DHT22;6208;48.956;9.076;2024-01-11T09:39:32;-1.10;99.90
12291;DHT22;6208;48.956;9.076;2024-01-11T09:42:18;-1.10;99.90
12291;DHT22;6208;48.956;9.076;2024-01-11T09:45:02;-1.10;99.90
12291;DHT22;6208;48.956;9.076;2024-01-11T09:47:50;-1.00;99.90
12291;DHT22;6208;48.956;9.076;2024-01-11T09:50:36;-0.90;99.90
12291;DHT22;6208;48.956;9.076;2024-01-11T09:53:21;-0.30;99.90
12291;DHT22;6208;48.956;9.076;2024-01-11T09:56:09;-0.80;99.90
12291;DHT22;6208;48.956;9.076;2024-01-11T09:58:54;-0.80;99.90
12291;DHT22;6208;48.956;9.076;2024-01-11T10:01:38;-0.70;99.90
12291;DHT22;6208;48.956;9.076;2024-01-11T10:04:22;-0.70;99.90
12291;DHT22;6208;48.956;9.076;2024-01-11T10:07:07;-0.70;99.90
12291;DHT22;6208;48.956;9.076;2024-01-11T10:09:52;-0.60;99.90
12291;DHT22;6208;48.956;9.076;2024-01-11T10:12:37;-0.60;99.90
12291;DHT22;6208;48.956;9.076;2024-01-11T10:15:24;-0.50;99.90
12291;DHT22;6208;48.956;9.076;2024-01-11T10:18:08;-0.50;99.90
12291;DHT22;6208;48.956;9.076;2024-01-11T10:20:52;2.20;99.90
12291;DHT22;6208;48.956;9.076;2024-01-11T10:23:37;-0.60;99.90
12291;DHT22;6208;48.956;9.076;2024-01-11T10:26:23;-0.60;99.90
12291;DHT22;6208;48.956;9.076;2024-01-11T10:29:07;-0.60;99.90
12291;DHT22;6208;48.956;9.076;2024-01-11T10:31:54;-0.70;99.90
12291;DHT22;6208;48.956;9.076;2024-01-11T10:34:39;2.00;99.90
12291;DHT22;6208;48.956;9.076;2024-01-11T10:37:25;-0.90;99.90
12291;DHT22;6208;48.956;9.076;2024-01-11T10:40:10;-0.80;99.90
12291;DHT22;6208;48.956;9.076;2024-01-11T10:42:58;-0.80;99.90
12291;DHT22;6208;48.956;9.076;2024-01-11T10:45:44;-0.60;99.90
12291;DHT22;6208;48.956;9.076;2024-01-11T10:48:37;1.30;99.90
12291;DHT22;6208;48.956;9.076;2024-01-11T10:51:22;-0.50;99.90
12291;DHT22;6208;48.956;9.076;2024-01-11T10:54:08;-0.50;99.90
12291;DHT22;6208;48.956;9.076;2024-01-11T10:56:53;0.50;99.90
12291;DHT22;6208;48.956;9.076;2024-01-11T10:59:39;1.10;99.90
12291;DHT22;6208;48.956;9.076;2024-01-11T11:02:25;1.00;99.90
12291;DHT22;6208;48.956;9.076;2024-01-11T11:05:10;-0.20;99.90
12291;DHT22;6208;48.956;9.076;2024-01-11T11:07:57;-0.20;99.90
12291;DHT22;6208;48.956;9.076;2024-01-11T11:10:42;-0.10;99.90
12291;DHT22;6208;48.956;9.076;2024-01-11T11:13:27;-0.10;99.90
12291;DHT22;6208;48.956;9.076;2024-01-11T11:16:11;-0.10;99.90
12291;DHT22;6208;48.956;9.076;2024-01-11T11:18:56;2.70;99.90
12291;DHT22;6208;48.956;9.076;2024-01-11T11:21:44;0.00;99.90
12291;DHT22;6208;48.956;9.076;2024-01-11T11:24:28;0.00;99.90
12291;DHT22;6208;48.956;9.076;2024-01-11T11:27:14;0.10;99.90
12291;DHT22;6208;48.956;9.076;2024-01-11T11:29:58;0.10;99.90
12291;DHT22;6208;48.956;9.076;2024-01-11T11:32:44;2.60;99.90
12291;DHT22;6208;48.956;9.076;2024-01-11T11:35:28;0.20;99.90
12291;DHT22;6208;48.956;9.076;2024-01-11T11:38:39;0.20;99.90
12291;DHT22;6208;48.956;9.076;2024-01-11T11:41:23;0.30;99.90
12291;DHT22;6208;48.956;9.076;2024-01-11T11:44:07;0.40;99.90
12291;DHT22;6208;48.956;9.076;2024-01-11T11:46:56;0.70;99.90
12291;DHT22;6208;48.956;9.076;2024-01-11T11:50:10;2.40;99.90
12291;DHT22;6208;48.956;9.076;2024-01-11T11:52:56;0.40;99.90
12291;DHT22;6208;48.956;9.076;2024-01-11T11:55:41;0.40;99.90
12291;DHT22;6208;48.956;9.076;2024-01-11T11:58:25;0.50;99.90
12291;DHT22;6208;48.956;9.076;2024-01-11T12:01:09;0.50;99.90
12291;DHT22;6208;48.956;9.076;2024-01-11T12:03:53;1.60;99.90
12291;DHT22;6208;48.956;9.076;2024-01-11T12:06:38;1.80;99.90
12291;DHT22;6208;48.956;9.076;2024-01-11T12:09:22;0.60;99.90
12291;DHT22;6208;48.956;9.076;2024-01-11T12:12:07;2.40;99.90
12291;DHT22;6208;48.956;9.076;2024-01-11T12:14:53;0.60;99.90
12291;DHT22;6208;48.956;9.076;2024-01-11T12:17:37;2.70;99.90
12291;DHT22;6208;48.956;9.076;2024-01-11T12:20:22;0.60;99.90
12291;DHT22;6208;48.956;9.076;2024-01-11T12:23:06;2.50;99.90
12291;DHT22;6208;48.956;9.076;2024-01-11T12:25:50;0.70;99.90
12291;DHT22;6208;48.956;9.076;2024-01-11T12:28:35;0.80;99.90
12291;DHT22;6208;48.956;9.076;2024-01-11T12:31:21;0.90;99.90
12291;DHT22;6208;48.956;9.076;2024-01-11T12:34:05;2.90;99.90
12291;DHT22;6208;48.956;9.076;2024-01-11T12:36:49;0.70;99.90
12291;DHT22;6208;48.956;9.076;2024-01-11T12:39:33;1.80;99.90
12291;DHT22;6208;48.956;9.076;2024-01-11T12:42:21;0.80;99.90
12291;DHT22;6208;48.956;9.076;2024-01-11T12:45:06;0.80;99.90
12291;DHT22;6208;48.956;9.076;2024-01-11T12:47:50;0.80;99.90
12291;DHT22;6208;48.956;9.076;2024-01-11T12:50:35;0.90;99.90
12291;DHT22;6208;48.956;9.076;2024-01-11T12:53:19;0.90;99.90
12291;DHT22;6208;48.956;9.076;2024-01-11T12:56:05;0.90;99.90
12291;DHT22;6208;48.956;9.076;2024-01-11T12:59:05;0.90;99.90
12291;DHT22;6208;48.956;9.076;2024-01-11T13:01:50;0.90;99.90
12291;DHT22;6208;48.956;9.076;2024-01-11T13:04:34;1.60;99.90
12291;DHT22;6208;48.956;9.076;2024-01-11T13:07:19;1.00;99.90
12291;DHT22;6208;48.956;9.076;2024-01-11T13:10:07;1.00;99.90
12291;DHT22;6208;48.956;9.076;2024-01-11T13:12:51;1.00;99.90
12291;DHT22;6208;48.956;9.076;2024-01-11T13:15:35;1.40;99.90
12291;DHT22;6208;48.956;9.076;2024-01-11T13:18:23;1.00;99.90
12291;DHT22;6208;48.956;9.076;2024-01-11T13:21:07;1.10;99.90
12291;DHT22;6208;48.956;9.076;2024-01-11T13:23:51;1.20;99.90
12291;DHT22;6208;48.956;9.076;2024-01-11T13:26:36;1.20;99.90
12291;DHT22;6208;48.956;9.076;2024-01-11T13:29:23;1.30;99.90
12291;DHT22;6208;48.956;9.076;2024-01-11T13:32:07;1.30;99.90
12291;DHT22;6208;48.956;9.076;2024-01-11T13:34:51;1.80;99.90
12291;DHT22;6208;48.956;9.076;2024-01-11T13:37:38;1.40;99.90
12291;DHT22;6208;48.956;9.076;2024-01-11T13:40:23;2.20;99.90
12291;DHT22;6208;48.956;9.076;2024-01-11T13:43:07;2.60;99.90
12291;DHT22;6208;48.956;9.076;2024-01-11T13:45:51;1.40;99.90
12291;DHT22;6208;48.956;9.076;2024-01-11T13:48:35;3.80;99.90
12291;DHT22;6208;48.956;9.076;2024-01-11T13:51:19;2.20;99.90
12291;DHT22;6208;48.956;9.076;2024-01-11T13:54:04;1.50;99.90
12291;DHT22;6208;48.956;9.076;2024-01-11T13:56:50;1.60;99.90
12291;DHT22;6208;48.956;9.076;2024-01-11T13:59:35;1.50;99.90
12291;DHT22;6208;48.956;9.076;2024-01-11T14:02:19;1.50;99.90
12291;DHT22;6208;48.956;9.076;2024-01-11T14:05:04;1.40;99.90
12291;DHT22;6208;48.956;9.076;2024-01-11T14:07:51;1.40;99.90
12291;DHT22;6208;48.956;9.076;2024-01-11T14:10:41;2.60;99.90
12291;DHT22;6208;48.956;9.076;2024-01-11T14:13:25;1.50;99.90
12291;DHT22;6208;48.956;9.076;2024-01-11T14:16:09;1.40;99.90
12291;DHT22;6208;48.956;9.076;2024-01-11T14:18:53;3.70;99.90
12291;DHT22;6208;48.956;9.076;2024-01-11T14:21:37;1.60;99.90
12291;DHT22;6208;48.956;9.076;2024-01-11T14:24:24;1.50;99.90
12291;DHT22;6208;48.956;9.076;2024-01-11T14:27:09;1.60;99.90
12291;DHT22;6208;48.956;9.076;2024-01-11T14:29:53;1.40;99.90
12291;DHT22;6208;48.956;9.076;2024-01-11T14:32:38;3.40;99.90
12291;DHT22;6208;48.956;9.076;2024-01-11T14:35:22;1.60;99.90
12291;DHT22;6208;48.956;9.076;2024-01-11T14:38:07;4.30;99.90
12291;DHT22;6208;48.956;9.076;2024-01-11T14:40:51;3.10;99.90
12291;DHT22;6208;48.956;9.076;2024-01-11T14:43:35;3.60;99.90
12291;DHT22;6208;48.956;9.076;2024-01-11T14:46:20;3.40;99.90
12291;DHT22;6208;48.956;9.076;2024-01-11T14:49:04;3.90;99.90
12291;DHT22;6208;48.956;9.076;2024-01-11T14:51:52;1.30;99.90
12291;DHT22;6208;48.956;9.076;2024-01-11T14:54:36;1.80;99.90
12291;DHT22;6208;48.956;9.076;2024-01-11T14:57:19;2.80;99.90
12291;DHT22;6208;48.956;9.076;2024-01-11T15:00:05;2.50;99.90
12291;DHT22;6208;48.956;9.076;2024-01-11T15:02:51;1.50;99.90
12291;DHT22;6208;48.956;9.076;2024-01-11T15:05:35;1.40;99.90
12291;DHT22;6208;48.956;9.076;2024-01-11T15:08:20;3.30;99.90
12291;DHT22;6208;48.956;9.076;2024-01-11T15:11:05;1.50;99.90
12291;DHT22;6208;48.956;9.076;2024-01-11T15:13:49;1.50;99.90
12291;DHT22;6208;48.956;9.076;2024-01-11T15:16:34;3.70;99.90
12291;DHT22;6208;48.956;9.076;2024-01-11T15:19:18;1.60;99.90
12291;DHT22;6208;48.956;9.076;2024-01-11T15:22:03;3.70;99.90
12291;DHT22;6208;48.956;9.076;2024-01-11T15:24:48;1.50;99.90
12291;DHT22;6208;48.956;9.076;2024-01-11T15:27:37;2.90;99.90
12291;DHT22;6208;48.956;9.076;2024-01-11T15:30:21;1.40;99.90
12291;DHT22;6208;48.956;9.076;2024-01-11T15:33:05;1.40;99.90
12291;DHT22;6208;48.956;9.076;2024-01-11T15:35:49;1.50;99.90
12291;DHT22;6208;48.956;9.076;2024-01-11T15:38:33;1.50;99.90
12291;DHT22;6208;48.956;9.076;2024-01-11T15:41:17;1.40;99.90
12291;DHT22;6208;48.956;9.076;2024-01-11T15:44:02;1.50;99.90
12291;DHT22;6208;48.956;9.076;2024-01-11T15:46:47;1.40;99.90
12291;DHT22;6208;48.956;9.076;2024-01-11T15:49:32;1.40;99.90
12291;DHT22;6208;48.956;9.076;2024-01-11T15:52:16;1.40;99.90
12291;DHT22;6208;48.956;9.076;2024-01-11T15:55:00;4.30;99.90
12291;DHT22;6208;48.956;9.076;2024-01-11T15:57:44;3.90;99.90
12291;DHT22;6208;48.956;9.076;2024-01-11T16:00:28;4.30;99.90
12291;DHT22;6208;48.956;9.076;2024-01-11T16:03:14;1.40;99.90
12291;DHT22;6208;48.956;9.076;2024-01-11T16:05:58;1.30;99.90
12291;DHT22;6208;48.956;9.076;2024-01-11T16:08:42;1.30;99.90
12291;DHT22;6208;48.956;9.076;2024-01-11T16:11:27;1.30;99.90
12291;DHT22;6208;48.956;9.076;2024-01-11T16:14:13;1.30;99.90
12291;DHT22;6208;48.956;9.076;2024-01-11T16:16:58;1.40;99.90
12291;DHT22;6208;48.956;9.076;2024-01-11T16:19:42;2.60;99.90
12291;DHT22;6208;48.956;9.076;2024-01-11T16:22:26;1.80;99.90
12291;DHT22;6208;48.956;9.076;2024-01-11T16:25:10;1.20;99.90
12291;DHT22;6208;48.956;9.076;2024-01-11T16:27:54;1.20;99.90
12291;DHT22;6208;48.956;9.076;2024-01-11T16:30:38;1.20;99.90
12291;DHT22;6208;48.956;9.076;2024-01-11T16:33:23;1.20;99.90
12291;DHT22;6208;48.956;9.076;2024-01-11T16:36:09;1.10;99.90
12291;DHT22;6208;48.956;9.076;2024-01-11T16:38:56;1.90;99.90
12291;DHT22;6208;48.956;9.076;2024-01-11T16:41:40;3.80;99.90
12291;DHT22;6208;48.956;9.076;2024-01-11T16:44:25;0.90;99.90
12291;DHT22;6208;48.956;9.076;2024-01-11T16:47:09;0.90;99.90
12291;DHT22;6208;48.956;9.076;2024-01-11T16:49:53;2.40;99.90
12291;DHT22;6208;48.956;9.076;2024-01-11T16:52:37;2.20;99.90
12291;DHT22;6208;48.956;9.076;2024-01-11T16:55:21;2.50;99.90
12291;DHT22;6208;48.956;9.076;2024-01-11T16:58:10;1.10;99.90
12291;DHT22;6208;48.956;9.076;2024-01-11T17:00:55;1.20;99.90
12291;DHT22;6208;48.956;9.076;2024-01-11T17:03:40;1.20;99.90
12291;DHT22;6208;48.956;9.076;2024-01-11T17:06:25;1.20;99.90
12291;DHT22;6208;48.956;9.076;2024-01-11T17:09:09;1.80;99.90
12291;DHT22;6208;48.956;9.076;2024-01-11T17:11:54;0.90;99.90
12291;DHT22;6208;48.956;9.076;2024-01-11T17:14:38;0.80;99.90
12291;DHT22;6208;48.956;9.076;2024-01-11T17:17:23;0.70;99.90
12291;DHT22;6208;48.956;9.076;2024-01-11T17:20:09;0.70;99.90
12291;DHT22;6208;48.956;9.076;2024-01-11T17:22:53;0.80;99.90
12291;DHT22;6208;48.956;9.076;2024-01-11T17:25:37;0.70;99.90
12291;DHT22;6208;48.956;9.076;2024-01-11T17:28:21;1.80;99.90
12291;DHT22;6208;48.956;9.076;2024-01-11T17:31:06;0.70;99.90
12291;DHT22;6208;48.956;9.076;2024-01-11T17:33:50;0.60;99.90
12291;DHT22;6208;48.956;9.076;2024-01-11T17:36:34;0.60;99.90
12291;DHT22;6208;48.956;9.076;2024-01-11T17:39:18;2.70;99.90
12291;DHT22;6208;48.956;9.076;2024-01-11T17:42:02;0.50;99.90
12291;DHT22;6208;48.956;9.076;2024-01-11T17:44:46;0.60;99.90
12291;DHT22;6208;48.956;9.076;2024-01-11T17:47:30;0.60;99.90
12291;DHT22;6208;48.956;9.076;2024-01-11T17:50:14;2.40;99.90